Time;durP1;ratioP1;P1;durP2;ratioP2;P2;SDS_P1;SDS_P2;PMS_P1;PMS_P2;Temp;Humidity;BMP_temperature;BMP_pressure;BME280_temperature;BME280_humidity;BME280_pressure;Samples;Min_cycle;Max_cycle;Signal;HPM_P1;HPM_P2
2022/07/12 00:01:59;;;;;;;10.50;2.20;;;;;;;;;;4993416;28;21074;-73
2022/07/12 00:04:26;;;;;;;9.60;2.23;;;;;;;;;;4996444;28;20459;-72
2022/07/12 00:06:54;;;;;;;10.23;2.37;;;;;;;;;;4996922;28;20461;-73
2022/07/12 00:09:22;;;;;;;9.93;2.40;;;;;;;;;;4991205;28;20460;-73
2022/07/12 00:11:50;;;;;;;10.97;2.47;;;;;;;;;;4989893;28;20460;-73
2022/07/12 00:14:17;;;;;;;9.60;2.00;;;;;;;;;;4990765;28;20847;-73
2022/07/12 00:16:44;;;;;;;11.00;2.80;;;;;;;;;;4998549;28;20529;-72
2022/07/12 00:19:11;;;;;;;10.10;2.40;;;;;;;;;;4991071;28;20468;-73
2022/07/12 00:21:39;;;;;;;10.40;2.33;;;;;;;;;;4990820;28;20483;-73
2022/07/12 00:24:06;;;;;;;11.27;2.10;;;;;;;;;;5002102;28;21014;-73
2022/07/12 00:26:34;;;;;;;10.40;2.50;;;;;;;;;;4990593;28;20461;-73
2022/07/12 00:29:02;;;;;;;9.67;2.37;;;;;;;;;;4990663;28;20458;-73
2022/07/12 00:31:29;;;;;;;10.50;2.60;;;;;;;;;;5001478;28;20462;-72
2022/07/12 00:33:56;;;;;;;10.00;2.70;;;;;;;;;;4991576;28;20538;-73
2022/07/12 00:36:23;;;;;;;11.30;3.13;;;;;;;;;;4994329;28;20458;-72
2022/07/12 00:38:50;;;;;;;9.37;2.43;;;;;;;;;;5000802;28;20963;-72
2022/07/12 00:41:17;;;;;;;10.70;3.13;;;;;;;;;;4998277;28;20488;-73
2022/07/12 00:43:46;;;;;;;9.27;2.37;;;;;;;;;;4994111;28;20524;-72
2022/07/12 00:46:15;;;;;;;14.13;3.17;;;;;;;;;;4994031;28;20451;-72
2022/07/12 00:48:42;;;;;;;8.77;2.50;;;;;;;;;;4998465;28;20805;-72
2022/07/12 00:51:10;;;;;;;8.87;2.33;;;;;;;;;;5002298;28;20846;-72
2022/07/12 00:53:37;;;;;;;7.50;1.50;;;;;;;;;;4993978;28;21249;-72
2022/07/12 00:56:05;;;;;;;8.37;2.07;;;;;;;;;;4992764;28;20442;-71
2022/07/12 00:58:32;;;;;;;10.43;2.40;;;;;;;;;;4994159;28;20878;-71
2022/07/12 01:01:01;;;;;;;8.33;2.13;;;;;;;;;;4992658;28;20484;-72
2022/07/12 01:03:28;;;;;;;8.70;2.40;;;;;;;;;;5004971;28;20527;-72
2022/07/12 01:05:56;;;;;;;8.20;2.50;;;;;;;;;;4992890;28;20443;-71
2022/07/12 01:08:23;;;;;;;9.10;2.53;;;;;;;;;;4994319;28;20465;-72
2022/07/12 01:10:50;;;;;;;8.83;2.87;;;;;;;;;;4993495;28;20459;-71
2022/07/12 01:13:18;;;;;;;9.10;2.40;;;;;;;;;;4993294;28;20460;-72
2022/07/12 01:15:45;;;;;;;8.23;2.47;;;;;;;;;;4992698;28;20448;-71
2022/07/12 01:18:14;;;;;;;7.37;2.00;;;;;;;;;;4993646;28;20459;-71
2022/07/12 01:20:42;;;;;;;8.57;2.70;;;;;;;;;;4993348;28;20472;-71
2022/07/12 01:23:11;;;;;;;8.50;2.47;;;;;;;;;;4993233;28;20784;-71
2022/07/12 01:25:38;;;;;;;9.57;2.90;;;;;;;;;;4993270;28;20464;-72
2022/07/12 01:28:05;;;;;;;10.97;2.80;;;;;;;;;;4992624;28;20442;-72
2022/07/12 01:30:33;;;;;;;9.03;2.50;;;;;;;;;;4992072;28;20517;-72
2022/07/12 01:33:00;;;;;;;8.77;2.90;;;;;;;;;;4992692;28;20448;-72
2022/07/12 01:35:28;;;;;;;8.50;2.63;;;;;;;;;;4993350;28;20456;-72
2022/07/12 01:37:55;;;;;;;8.70;2.40;;;;;;;;;;4992823;28;20526;-72
2022/07/12 01:40:23;;;;;;;11.03;3.00;;;;;;;;;;4993085;28;20453;-72
2022/07/12 01:42:51;;;;;;;8.10;2.60;;;;;;;;;;4992702;28;20489;-71
2022/07/12 01:45:19;;;;;;;9.30;2.57;;;;;;;;;;4991835;28;20571;-72
2022/07/12 01:47:46;;;;;;;8.20;2.50;;;;;;;;;;4992933;28;20448;-71
2022/07/12 01:50:13;;;;;;;8.63;2.47;;;;;;;;;;4994139;28;20496;-72
2022/07/12 01:52:41;;;;;;;9.13;2.93;;;;;;;;;;4992958;28;20505;-71
2022/07/12 01:55:09;;;;;;;8.30;2.27;;;;;;;;;;4992321;28;20556;-71
2022/07/12 01:57:37;;;;;;;8.53;2.20;;;;;;;;;;4992854;28;20937;-72
2022/07/12 02:00:06;;;;;;;9.10;2.80;;;;;;;;;;4992107;28;20457;-71
2022/07/12 02:02:33;;;;;;;9.73;2.73;;;;;;;;;;4992265;28;20617;-71
2022/07/12 02:05:01;;;;;;;8.90;2.33;;;;;;;;;;4992004;28;20460;-71
2022/07/12 02:07:28;;;;;;;8.37;2.63;;;;;;;;;;4993068;28;20809;-72
2022/07/12 02:09:55;;;;;;;8.60;2.50;;;;;;;;;;4992108;28;20529;-71
2022/07/12 02:12:22;;;;;;;8.60;2.43;;;;;;;;;;4993215;28;20528;-72
2022/07/12 02:14:51;;;;;;;8.27;2.20;;;;;;;;;;4991956;28;20452;-71
2022/07/12 02:17:18;;;;;;;9.40;2.53;;;;;;;;;;4992742;28;20579;-71
2022/07/12 02:19:46;;;;;;;9.57;2.57;;;;;;;;;;4992162;28;20491;-71
2022/07/12 02:22:13;;;;;;;10.53;3.03;;;;;;;;;;4992550;28;20980;-71
2022/07/12 02:24:40;;;;;;;9.63;2.90;;;;;;;;;;4992417;28;20461;-72
2022/07/12 02:27:08;;;;;;;9.13;2.60;;;;;;;;;;4991862;28;20516;-73
2022/07/12 02:29:36;;;;;;;9.57;2.87;;;;;;;;;;4992510;28;20540;-74
2022/07/12 02:32:05;;;;;;;8.60;2.33;;;;;;;;;;4991358;28;20461;-73
2022/07/12 02:34:32;;;;;;;10.10;2.70;;;;;;;;;;4992750;28;20444;-72
2022/07/12 02:36:59;;;;;;;9.10;2.47;;;;;;;;;;4992172;28;20480;-72
2022/07/12 02:39:26;;;;;;;9.70;2.37;;;;;;;;;;4992716;28;20453;-73
2022/07/12 02:41:53;;;;;;;9.17;2.40;;;;;;;;;;4992116;28;20575;-72
2022/07/12 02:56:11;;;;;;;9.40;3.00;;;;;;;;;;4927690;23;20602;-71
2022/07/12 02:58:39;;;;;;;8.30;2.40;;;;;;;;;;5009405;28;20455;-71
2022/07/12 03:01:06;;;;;;;8.80;2.60;;;;;;;;;;5001617;28;20965;-71
2022/07/12 03:03:33;;;;;;;8.17;2.00;;;;;;;;;;4994553;28;20791;-72
2022/07/12 03:06:00;;;;;;;8.77;2.37;;;;;;;;;;5003396;28;20570;-72
2022/07/12 03:08:27;;;;;;;8.53;2.13;;;;;;;;;;5007693;28;20465;-70
2022/07/12 03:10:54;;;;;;;7.97;1.83;;;;;;;;;;5002257;28;20459;-72
2022/07/12 03:13:23;;;;;;;9.40;2.50;;;;;;;;;;4997338;28;20843;-71
2022/07/12 03:15:50;;;;;;;9.00;2.10;;;;;;;;;;5006789;28;20487;-71
2022/07/12 03:18:18;;;;;;;8.53;2.00;;;;;;;;;;4997164;28;20457;-71
2022/07/12 03:20:45;;;;;;;8.27;2.40;;;;;;;;;;5005593;28;20455;-71
2022/07/12 03:23:12;;;;;;;8.67;2.50;;;;;;;;;;4997266;28;20580;-71
2022/07/12 03:25:39;;;;;;;8.50;2.27;;;;;;;;;;5001454;28;20468;-71
2022/07/12 03:28:06;;;;;;;9.13;2.70;;;;;;;;;;5004657;28;20462;-72
2022/07/12 03:30:35;;;;;;;8.93;2.50;;;;;;;;;;5006231;28;21119;-72
2022/07/12 03:33:02;;;;;;;8.70;2.90;;;;;;;;;;5003836;28;20532;-72
2022/07/12 03:35:31;;;;;;;9.33;2.90;;;;;;;;;;5003600;28;20509;-71
2022/07/12 03:37:58;;;;;;;8.77;2.10;;;;;;;;;;4997636;28;20528;-71
2022/07/12 03:40:25;;;;;;;8.60;2.13;;;;;;;;;;4994694;28;20453;-73
2022/07/12 03:42:53;;;;;;;8.50;2.10;;;;;;;;;;4996944;28;20548;-71
2022/07/12 03:45:20;;;;;;;8.53;2.30;;;;;;;;;;5002357;28;20543;-72
2022/07/12 03:47:49;;;;;;;8.27;1.80;;;;;;;;;;4994326;28;20853;-72
2022/07/12 03:50:16;;;;;;;7.90;2.10;;;;;;;;;;4996806;28;20528;-72
2022/07/12 03:52:44;;;;;;;7.90;2.00;;;;;;;;;;5004098;28;20560;-72
2022/07/12 03:55:12;;;;;;;8.70;2.30;;;;;;;;;;5001995;28;20548;-72
2022/07/12 03:57:39;;;;;;;8.77;2.40;;;;;;;;;;4996413;28;20445;-72
2022/07/12 04:00:08;;;;;;;9.17;2.37;;;;;;;;;;5010611;28;20539;-73
2022/07/12 04:02:37;;;;;;;10.90;2.70;;;;;;;;;;5010599;28;20491;-72
2022/07/12 04:05:06;;;;;;;9.30;2.17;;;;;;;;;;5006939;28;20448;-73
2022/07/12 04:07:34;;;;;;;9.10;2.30;;;;;;;;;;4997702;28;20445;-73
2022/07/12 04:10:01;;;;;;;8.47;2.17;;;;;;;;;;5001622;28;20468;-72
2022/07/12 04:12:28;;;;;;;8.83;2.20;;;;;;;;;;4999117;28;20463;-73
2022/07/12 04:14:55;;;;;;;7.87;2.13;;;;;;;;;;5011237;28;20448;-73
2022/07/12 04:17:22;;;;;;;8.50;1.80;;;;;;;;;;4995093;28;20531;-72
2022/07/12 04:19:49;;;;;;;9.50;2.40;;;;;;;;;;4987656;28;20515;-72
2022/07/12 04:22:18;;;;;;;8.30;2.33;;;;;;;;;;5009740;28;20566;-72
2022/07/12 04:24:45;;;;;;;9.20;2.27;;;;;;;;;;5010880;28;20484;-72
2022/07/12 04:27:12;;;;;;;8.73;2.10;;;;;;;;;;5009181;28;20550;-73
2022/07/12 04:29:39;;;;;;;9.80;2.53;;;;;;;;;;5006297;28;20448;-75
2022/07/12 04:32:07;;;;;;;9.03;2.70;;;;;;;;;;5006402;28;20457;-77
2022/07/12 04:34:34;;;;;;;8.70;2.10;;;;;;;;;;5012065;28;20463;-76
2022/07/12 04:37:01;;;;;;;9.93;2.10;;;;;;;;;;5029042;28;20476;-76
2022/07/12 04:39:30;;;;;;;7.60;1.80;;;;;;;;;;5021380;28;20518;-74
2022/07/12 04:41:57;;;;;;;9.80;2.60;;;;;;;;;;5019828;28;22407;-76
2022/07/12 04:44:24;;;;;;;9.03;2.47;;;;;;;;;;5026035;28;20460;-76
2022/07/12 04:46:51;;;;;;;8.07;1.87;;;;;;;;;;5023107;28;20527;-74
2022/07/12 04:49:18;;;;;;;8.70;2.50;;;;;;;;;;5013727;28;20458;-75
2022/07/12 04:51:46;;;;;;;9.50;2.10;;;;;;;;;;5014315;28;20506;-76
2022/07/12 04:54:13;;;;;;;8.10;2.00;;;;;;;;;;5011869;28;20445;-79
2022/07/12 04:56:41;;;;;;;8.00;2.27;;;;;;;;;;4994941;28;20926;-74
2022/07/12 04:59:09;;;;;;;7.93;2.00;;;;;;;;;;4998168;28;20456;-79
2022/07/12 05:01:36;;;;;;;7.90;1.77;;;;;;;;;;5013633;28;20543;-77
2022/07/12 05:04:04;;;;;;;8.23;2.30;;;;;;;;;;5012007;28;20484;-78
2022/07/12 05:06:31;;;;;;;7.73;1.87;;;;;;;;;;5011818;28;20482;-78
2022/07/12 05:08:58;;;;;;;8.43;2.13;;;;;;;;;;5012087;28;20460;-77
2022/07/12 05:11:26;;;;;;;8.23;1.97;;;;;;;;;;5011403;28;20455;-77
2022/07/12 05:13:54;;;;;;;8.23;1.93;;;;;;;;;;5012470;28;20456;-78
2022/07/12 05:16:21;;;;;;;9.47;2.30;;;;;;;;;;5010936;28;20450;-77
2022/07/12 05:18:48;;;;;;;8.67;1.77;;;;;;;;;;5011894;28;20458;-77
2022/07/12 05:21:15;;;;;;;7.70;1.53;;;;;;;;;;5014677;28;20453;-77
2022/07/12 05:23:43;;;;;;;9.13;2.07;;;;;;;;;;5003113;28;20488;-76
2022/07/12 05:26:10;;;;;;;9.20;2.00;;;;;;;;;;5007642;28;20461;-78
2022/07/12 05:28:37;;;;;;;7.73;2.03;;;;;;;;;;5013983;28;20505;-78
2022/07/12 05:31:05;;;;;;;7.40;2.20;;;;;;;;;;5014763;28;20449;-78
2022/07/12 05:33:32;;;;;;;7.90;2.03;;;;;;;;;;5013651;28;21147;-76
2022/07/12 05:36:01;;;;;;;8.33;2.33;;;;;;;;;;5014147;28;20452;-78
2022/07/12 05:38:28;;;;;;;7.37;1.87;;;;;;;;;;5012765;28;20454;-77
2022/07/12 05:40:55;;;;;;;7.70;1.77;;;;;;;;;;5014150;28;20457;-78
2022/07/12 05:43:22;;;;;;;7.50;2.07;;;;;;;;;;5013509;28;20485;-79
2022/07/12 05:45:49;;;;;;;7.93;2.40;;;;;;;;;;5013792;28;20895;-79
2022/07/12 05:48:18;;;;;;;7.43;2.40;;;;;;;;;;5013875;28;20514;-78
2022/07/12 05:50:45;;;;;;;9.27;2.87;;;;;;;;;;5013935;28;20448;-78
2022/07/12 05:53:23;;;;;;;9.17;2.60;;;;;;;;;;5013911;28;20456;-78
2022/07/12 05:55:51;;;;;;;8.67;2.43;;;;;;;;;;5013262;28;20492;-78
2022/07/12 05:58:18;;;;;;;8.73;2.70;;;;;;;;;;4997167;28;20936;-78
2022/07/12 06:00:46;;;;;;;8.43;2.17;;;;;;;;;;5012189;28;20448;-78
2022/07/12 06:03:14;;;;;;;8.60;2.50;;;;;;;;;;5013344;28;20667;-79
2022/07/12 06:05:43;;;;;;;8.60;2.50;;;;;;;;;;5013880;28;20448;-77
2022/07/12 06:08:10;;;;;;;10.10;2.80;;;;;;;;;;5013578;28;20893;-76
2022/07/12 06:10:37;;;;;;;9.83;2.67;;;;;;;;;;5013759;28;20798;-79
2022/07/12 06:13:04;;;;;;;8.90;2.37;;;;;;;;;;5013685;28;20547;-79
2022/07/12 06:15:32;;;;;;;8.80;2.50;;;;;;;;;;5012601;28;20475;-78
2022/07/12 06:17:59;;;;;;;10.30;2.60;;;;;;;;;;5013264;28;20459;-77
2022/07/12 06:20:26;;;;;;;11.00;2.77;;;;;;;;;;5012586;28;20516;-79
2022/07/12 06:22:55;;;;;;;12.00;2.20;;;;;;;;;;5013694;28;20494;-79
2022/07/12 06:25:22;;;;;;;9.30;2.03;;;;;;;;;;5011553;28;20545;-78
2022/07/12 06:27:50;;;;;;;10.27;1.93;;;;;;;;;;5006330;28;20448;-79
2022/07/12 06:30:18;;;;;;;7.80;1.90;;;;;;;;;;5012220;28;20452;-80
2022/07/12 06:32:46;;;;;;;8.00;2.00;;;;;;;;;;5012156;28;20460;-79
2022/07/12 06:35:13;;;;;;;7.80;1.97;;;;;;;;;;4986985;28;20441;-72
2022/07/12 06:37:40;;;;;;;7.87;1.70;;;;;;;;;;5012621;28;20456;-77
2022/07/12 06:40:10;;;;;;;7.80;1.53;;;;;;;;;;5013581;28;20444;-79
2022/07/12 06:42:37;;;;;;;8.00;1.60;;;;;;;;;;5013170;28;20484;-79
2022/07/12 06:45:05;;;;;;;7.70;1.50;;;;;;;;;;5017958;28;20501;-78
2022/07/12 06:47:32;;;;;;;8.57;2.07;;;;;;;;;;5026352;28;20468;-75
2022/07/12 06:49:59;;;;;;;8.23;1.83;;;;;;;;;;5032601;28;20476;-78
2022/07/12 06:52:26;;;;;;;8.40;1.50;;;;;;;;;;5016001;28;20829;-79
2022/07/12 06:54:53;;;;;;;9.13;1.77;;;;;;;;;;5013746;28;20543;-79
2022/07/12 06:57:22;;;;;;;8.20;1.40;;;;;;;;;;5002423;28;20477;-78
2022/07/12 06:59:49;;;;;;;8.63;1.50;;;;;;;;;;5003590;28;20986;-79
2022/07/12 07:02:16;;;;;;;9.00;2.10;;;;;;;;;;5011997;28;20480;-79
2022/07/12 07:04:43;;;;;;;9.00;1.93;;;;;;;;;;5012911;28;20579;-79
2022/07/12 07:07:10;;;;;;;8.67;1.50;;;;;;;;;;5012046;28;20543;-73
2022/07/12 07:09:38;;;;;;;8.50;1.80;;;;;;;;;;5012635;28;20462;-78
2022/07/12 07:12:05;;;;;;;9.47;1.53;;;;;;;;;;5012515;28;20544;-78
2022/07/12 07:14:34;;;;;;;9.03;1.30;;;;;;;;;;5011901;28;20455;-78
2022/07/12 07:17:01;;;;;;;8.90;1.53;;;;;;;;;;5012199;28;20457;-79
2022/07/12 07:19:28;;;;;;;8.70;1.27;;;;;;;;;;5011535;28;20539;-77
2022/07/12 07:21:56;;;;;;;8.70;1.67;;;;;;;;;;5012110;28;20452;-79
2022/07/12 07:24:23;;;;;;;8.60;1.40;;;;;;;;;;5011822;28;20483;-79
2022/07/12 07:26:50;;;;;;;8.50;1.43;;;;;;;;;;4997997;28;20457;-79
2022/07/12 07:32:04;;;;;;;7.90;1.23;;;;;;;;;;5012041;28;20412;-78
2022/07/12 07:34:31;;;;;;;8.00;1.20;;;;;;;;;;5011215;28;20459;-79
2022/07/12 07:36:58;;;;;;;8.07;1.27;;;;;;;;;;5011472;28;20535;-75
2022/07/12 07:39:25;;;;;;;7.77;1.23;;;;;;;;;;5010853;28;20464;-78
2022/07/12 07:41:52;;;;;;;8.27;1.00;;;;;;;;;;5011671;28;20456;-78
2022/07/12 07:44:19;;;;;;;7.90;0.83;;;;;;;;;;5010143;28;20839;-78
2022/07/12 07:46:46;;;;;;;9.90;1.67;;;;;;;;;;5011504;28;20459;-79
2022/07/12 07:49:15;;;;;;;9.27;1.13;;;;;;;;;;5011263;28;20535;-78
2022/07/12 07:51:42;;;;;;;7.30;1.10;;;;;;;;;;5011777;28;20819;-78
2022/07/12 07:54:09;;;;;;;7.50;0.97;;;;;;;;;;5012115;28;20456;-79
2022/07/12 07:56:36;;;;;;;6.70;1.00;;;;;;;;;;5007170;28;20468;-78
2022/07/12 07:59:04;;;;;;;6.80;1.00;;;;;;;;;;4996093;28;20460;-79
2022/07/12 08:04:20;;;;;;;7.00;1.20;;;;;;;;;;5005725;28;20914;-77
2022/07/12 08:06:47;;;;;;;11.27;1.30;;;;;;;;;;5011111;28;21025;-78
2022/07/12 08:09:15;;;;;;;7.20;0.90;;;;;;;;;;5011197;28;20444;-77
2022/07/12 08:11:42;;;;;;;8.30;1.43;;;;;;;;;;5011310;28;20460;-78
2022/07/12 08:14:09;;;;;;;7.00;1.00;;;;;;;;;;5011355;28;20449;-78
2022/07/12 08:16:37;;;;;;;6.30;0.80;;;;;;;;;;5010295;28;20446;-78
2022/07/12 08:19:04;;;;;;;6.27;0.87;;;;;;;;;;5011346;28;20808;-77
2022/07/12 08:21:33;;;;;;;6.10;0.87;;;;;;;;;;5010652;28;20687;-79
2022/07/12 08:24:00;;;;;;;6.13;0.87;;;;;;;;;;5011037;28;21354;-78
2022/07/12 08:26:27;;;;;;;6.03;0.70;;;;;;;;;;4997316;28;20468;-77
2022/07/12 08:28:54;;;;;;;6.13;0.80;;;;;;;;;;5011036;28;20448;-79
2022/07/12 08:31:21;;;;;;;6.10;1.00;;;;;;;;;;5010047;28;20448;-78
2022/07/12 08:33:49;;;;;;;6.30;1.00;;;;;;;;;;5011675;28;20452;-78
2022/07/12 08:36:16;;;;;;;6.30;0.93;;;;;;;;;;5010391;28;20449;-78
2022/07/12 08:38:44;;;;;;;5.77;0.60;;;;;;;;;;5011472;28;20445;-78
2022/07/12 08:41:13;;;;;;;6.00;0.70;;;;;;;;;;5010696;28;20458;-77
2022/07/12 08:43:40;;;;;;;6.20;0.63;;;;;;;;;;5011479;28;20516;-76
2022/07/12 08:46:08;;;;;;;5.70;0.60;;;;;;;;;;5011062;28;20449;-78
2022/07/12 08:48:35;;;;;;;5.73;0.60;;;;;;;;;;5010691;28;20444;-78
2022/07/12 08:51:03;;;;;;;6.20;0.90;;;;;;;;;;5011356;28;20456;-78
2022/07/12 08:53:31;;;;;;;5.77;0.80;;;;;;;;;;5010446;28;20790;-77
2022/07/12 08:55:59;;;;;;;5.70;0.70;;;;;;;;;;5012462;28;20511;-75
2022/07/12 08:58:27;;;;;;;6.00;0.73;;;;;;;;;;4997316;28;20447;-78
2022/07/12 09:00:54;;;;;;;5.80;0.80;;;;;;;;;;5014321;28;20485;-79
2022/07/12 09:03:21;;;;;;;7.50;0.80;;;;;;;;;;5014182;28;20488;-77
2022/07/12 09:05:51;;;;;;;5.97;0.77;;;;;;;;;;5014498;28;20931;-77
2022/07/12 09:08:18;;;;;;;6.10;1.00;;;;;;;;;;5013596;28;20954;-77
2022/07/12 09:11:01;;;;;;;7.77;0.97;;;;;;;;;;5015044;28;20459;-78
2022/07/12 09:13:43;;;;;;;7.00;1.10;;;;;;;;;;5013791;28;20451;-75
2022/07/12 09:16:14;;;;;;;7.00;1.13;;;;;;;;;;5014150;28;20462;-78
2022/07/12 09:18:41;;;;;;;6.30;0.87;;;;;;;;;;5014485;28;20456;-78
2022/07/12 09:21:08;;;;;;;6.27;0.70;;;;;;;;;;5014123;28;20959;-79
2022/07/12 09:23:35;;;;;;;6.30;0.70;;;;;;;;;;5013565;28;20475;-79
2022/07/12 09:26:09;;;;;;;6.40;0.70;;;;;;;;;;5007565;28;20461;-79
2022/07/12 09:28:36;;;;;;;6.60;0.80;;;;;;;;;;4987572;28;20456;-77
2022/07/12 09:31:03;;;;;;;6.67;0.97;;;;;;;;;;5014062;28;20448;-78
2022/07/12 09:36:17;;;;;;;6.70;0.90;;;;;;;;;;5013189;28;20916;-77
2022/07/12 09:38:52;;;;;;;7.17;0.90;;;;;;;;;;5014757;28;20495;-79
2022/07/12 09:41:22;;;;;;;7.20;0.60;;;;;;;;;;5013179;28;20502;-78
2022/07/12 09:43:50;;;;;;;7.20;0.90;;;;;;;;;;5014113;28;20488;-79
2022/07/12 09:46:17;;;;;;;7.20;0.80;;;;;;;;;;5012232;28;20982;-79
2022/07/12 09:48:45;;;;;;;6.67;1.00;;;;;;;;;;5014052;28;20535;-79
2022/07/12 09:51:15;;;;;;;6.90;0.97;;;;;;;;;;5013261;28;20450;-72
2022/07/12 09:53:44;;;;;;;6.90;1.10;;;;;;;;;;5013863;28;20457;-77
2022/07/12 09:56:12;;;;;;;6.60;0.80;;;;;;;;;;5012069;28;21041;-72
2022/07/12 09:58:41;;;;;;;7.00;1.00;;;;;;;;;;4995711;28;20449;-78
2022/07/12 10:01:09;;;;;;;6.20;0.70;;;;;;;;;;5013218;28;20459;-78
2022/07/12 10:03:37;;;;;;;7.57;1.30;;;;;;;;;;5013083;28;20587;-78
2022/07/12 10:06:04;;;;;;;6.40;0.90;;;;;;;;;;5012206;28;20543;-77
2022/07/12 10:08:32;;;;;;;6.30;0.77;;;;;;;;;;5012941;28;20528;-77
2022/07/12 10:10:59;;;;;;;6.40;0.77;;;;;;;;;;5013529;28;20475;-77
2022/07/12 10:13:26;;;;;;;6.40;0.90;;;;;;;;;;5012222;28;20460;-78
2022/07/12 10:15:59;;;;;;;6.50;0.90;;;;;;;;;;5013326;28;20440;-78
2022/07/12 10:18:27;;;;;;;6.20;0.90;;;;;;;;;;5009724;28;20532;-79
2022/07/12 10:20:54;;;;;;;6.97;0.70;;;;;;;;;;5003965;28;20455;-78
2022/07/12 10:23:45;;;;;;;6.23;1.00;;;;;;;;;;5012418;28;20458;-78
2022/07/12 10:26:33;;;;;;;6.73;1.20;;;;;;;;;;5005314;28;20449;-73
2022/07/12 10:29:04;;;;;;;6.40;0.80;;;;;;;;;;5006923;28;20527;-78
2022/07/12 10:31:35;;;;;;;6.20;0.70;;;;;;;;;;5012295;28;20444;-78
2022/07/12 10:34:12;;;;;;;6.70;0.90;;;;;;;;;;5013002;28;20448;-79
2022/07/12 10:37:00;;;;;;;7.77;0.80;;;;;;;;;;5012994;28;20451;-78
2022/07/12 10:39:27;;;;;;;6.60;0.90;;;;;;;;;;5012662;28;20460;-77
2022/07/12 10:42:09;;;;;;;6.40;0.80;;;;;;;;;;5013119;28;20448;-79
2022/07/12 10:44:37;;;;;;;7.60;1.50;;;;;;;;;;5013145;28;20580;-78
2022/07/12 10:47:06;;;;;;;7.03;0.90;;;;;;;;;;5014155;28;20472;-78
2022/07/12 10:49:35;;;;;;;6.33;0.60;;;;;;;;;;5013780;28;20445;-79
2022/07/12 10:52:23;;;;;;;7.40;0.77;;;;;;;;;;5005421;28;20446;-78
2022/07/12 10:55:05;;;;;;;6.60;0.80;;;;;;;;;;5005465;28;20931;-78
2022/07/12 10:57:40;;;;;;;6.47;0.80;;;;;;;;;;5021946;28;20557;-78
2022/07/12 11:00:09;;;;;;;6.30;0.63;;;;;;;;;;5027386;28;20432;-77
2022/07/12 11:02:37;;;;;;;6.80;1.00;;;;;;;;;;5032897;28;20470;-78
2022/07/12 11:05:05;;;;;;;6.80;1.00;;;;;;;;;;5022260;28;20487;-79
2022/07/12 11:07:32;;;;;;;6.90;0.90;;;;;;;;;;5016067;28;20531;-79
2022/07/12 11:09:59;;;;;;;6.67;0.87;;;;;;;;;;5015243;28;20448;-79
2022/07/12 11:12:29;;;;;;;6.50;0.63;;;;;;;;;;5012828;28;20810;-79
2022/07/12 11:14:57;;;;;;;6.63;0.67;;;;;;;;;;5013476;28;20514;-79
2022/07/12 11:17:27;;;;;;;7.00;1.00;;;;;;;;;;5011433;28;20806;-79
2022/07/12 11:20:08;;;;;;;6.80;1.00;;;;;;;;;;5012183;28;20445;-78
2022/07/12 11:22:35;;;;;;;6.97;1.00;;;;;;;;;;5011898;28;20449;-78
2022/07/12 11:25:03;;;;;;;6.80;0.80;;;;;;;;;;5012286;28;20570;-78
2022/07/12 11:27:30;;;;;;;6.73;0.80;;;;;;;;;;5003500;28;20462;-78
2022/07/12 11:29:58;;;;;;;8.57;0.90;;;;;;;;;;5011946;28;20480;-77
2022/07/12 11:32:35;;;;;;;6.70;0.80;;;;;;;;;;5011549;28;20522;-78
2022/07/12 11:35:02;;;;;;;6.80;0.90;;;;;;;;;;5011756;28;20455;-78
2022/07/12 11:37:31;;;;;;;6.70;0.80;;;;;;;;;;5010716;28;20548;-78
2022/07/12 11:39:58;;;;;;;7.20;0.80;;;;;;;;;;5011852;28;20459;-76
2022/07/12 11:42:25;;;;;;;7.50;0.80;;;;;;;;;;5010921;28;20809;-78
2022/07/12 11:44:53;;;;;;;7.80;1.00;;;;;;;;;;5012041;28;20534;-78
2022/07/12 11:47:22;;;;;;;7.30;0.80;;;;;;;;;;5010096;28;20441;-78
2022/07/12 11:49:50;;;;;;;7.20;0.90;;;;;;;;;;5011548;28;20456;-79
2022/07/12 11:52:18;;;;;;;7.20;0.90;;;;;;;;;;5010803;28;21356;-78
2022/07/12 11:54:46;;;;;;;6.63;0.70;;;;;;;;;;5011489;28;20811;-78
2022/07/12 11:57:14;;;;;;;6.83;0.80;;;;;;;;;;5001916;28;20676;-73
2022/07/12 11:59:41;;;;;;;6.87;0.80;;;;;;;;;;5001100;28;20535;-77
2022/07/12 12:02:10;;;;;;;7.03;0.70;;;;;;;;;;5011401;28;20458;-79
2022/07/12 12:04:45;;;;;;;7.00;0.83;;;;;;;;;;5010835;28;20488;-79
2022/07/12 12:07:16;;;;;;;6.90;0.70;;;;;;;;;;5010763;28;20450;-74
2022/07/12 12:10:04;;;;;;;6.90;0.70;;;;;;;;;;5011466;28;20445;-78
2022/07/12 12:12:37;;;;;;;6.97;0.70;;;;;;;;;;4986952;28;20532;-80
2022/07/12 12:15:05;;;;;;;7.17;0.83;;;;;;;;;;5011419;28;20456;-79
2022/07/12 12:17:33;;;;;;;7.07;0.80;;;;;;;;;;5010144;28;20448;-80
2022/07/12 12:20:09;;;;;;;6.90;0.90;;;;;;;;;;4997838;28;20449;-79
2022/07/12 12:22:36;;;;;;;7.40;0.97;;;;;;;;;;5010296;28;20539;-78
2022/07/12 12:25:05;;;;;;;6.90;0.70;;;;;;;;;;5010743;28;20571;-78
2022/07/12 12:27:32;;;;;;;7.00;0.70;;;;;;;;;;5001866;28;20634;-78
2022/07/12 12:30:00;;;;;;;8.03;0.87;;;;;;;;;;5012545;28;20969;-78
2022/07/12 12:32:27;;;;;;;8.13;1.70;;;;;;;;;;5014385;28;20464;-78
2022/07/12 12:35:06;;;;;;;7.10;0.90;;;;;;;;;;5014797;28;20457;-79
2022/07/12 12:37:33;;;;;;;7.73;0.70;;;;;;;;;;5013466;28;21160;-78
2022/07/12 12:40:01;;;;;;;7.10;0.70;;;;;;;;;;5014826;28;20452;-78
2022/07/12 12:42:31;;;;;;;7.00;0.80;;;;;;;;;;5013465;28;20456;-76
2022/07/12 12:44:58;;;;;;;6.93;0.90;;;;;;;;;;5014792;28;20472;-76
2022/07/12 12:47:32;;;;;;;7.10;0.80;;;;;;;;;;5013398;28;20448;-78
2022/07/12 12:50:00;;;;;;;7.00;0.80;;;;;;;;;;5014684;28;20448;-78
2022/07/12 12:52:28;;;;;;;7.17;0.87;;;;;;;;;;5013917;28;20989;-76
2022/07/12 12:54:56;;;;;;;6.80;0.60;;;;;;;;;;5014997;28;20549;-79
2022/07/12 12:57:25;;;;;;;7.10;0.80;;;;;;;;;;5003931;28;20465;-79
2022/07/12 12:59:54;;;;;;;7.40;1.00;;;;;;;;;;5005665;28;20466;-78
2022/07/12 13:02:23;;;;;;;7.60;0.80;;;;;;;;;;5014122;28;20483;-77
2022/07/12 13:04:51;;;;;;;7.40;1.07;;;;;;;;;;5014730;28;20484;-78
2022/07/12 13:07:18;;;;;;;6.87;0.70;;;;;;;;;;5013704;28;20452;-79
2022/07/12 13:09:45;;;;;;;6.87;0.70;;;;;;;;;;5014616;28;20455;-78
2022/07/12 13:12:13;;;;;;;7.00;0.90;;;;;;;;;;5014043;28;20962;-72
2022/07/12 13:14:40;;;;;;;6.97;0.90;;;;;;;;;;5014888;28;20962;-78
2022/07/12 13:17:08;;;;;;;6.77;0.60;;;;;;;;;;5014052;28;20510;-78
2022/07/12 13:19:37;;;;;;;6.97;0.90;;;;;;;;;;5013024;28;20550;-78
2022/07/12 13:22:04;;;;;;;6.80;0.60;;;;;;;;;;5013673;28;20928;-78
2022/07/12 13:24:31;;;;;;;7.07;0.80;;;;;;;;;;5013318;28;20535;-77
2022/07/12 13:26:58;;;;;;;6.87;0.70;;;;;;;;;;5004933;28;20539;-77
2022/07/12 13:29:25;;;;;;;7.73;0.70;;;;;;;;;;5013598;28;20801;-77
2022/07/12 13:31:52;;;;;;;6.90;0.70;;;;;;;;;;5014096;28;20924;-79
2022/07/12 13:34:21;;;;;;;7.63;0.83;;;;;;;;;;5013260;28;20452;-79
2022/07/12 13:36:48;;;;;;;7.17;0.90;;;;;;;;;;5015322;28;20456;-78
2022/07/12 13:42:01;;;;;;;7.03;0.80;;;;;;;;;;5014257;28;20846;-79
2022/07/12 13:44:28;;;;;;;7.13;0.83;;;;;;;;;;5013935;28;20467;-76
2022/07/12 13:46:55;;;;;;;7.30;0.87;;;;;;;;;;5014584;28;20459;-78
2022/07/12 13:49:24;;;;;;;7.10;0.70;;;;;;;;;;5013796;28;20945;-77
2022/07/12 13:51:51;;;;;;;7.07;0.83;;;;;;;;;;5014439;28;20530;-77
2022/07/12 13:54:18;;;;;;;7.17;1.00;;;;;;;;;;5013252;28;20459;-77
2022/07/12 13:56:47;;;;;;;7.17;1.00;;;;;;;;;;5007885;28;20592;-77
2022/07/12 13:59:14;;;;;;;7.10;0.80;;;;;;;;;;4999257;28;20535;-78
2022/07/12 14:01:41;;;;;;;7.03;0.80;;;;;;;;;;5014402;28;20547;-76
2022/07/12 14:04:09;;;;;;;7.40;0.70;;;;;;;;;;5013716;28;20449;-77
2022/07/12 14:06:37;;;;;;;7.03;0.80;;;;;;;;;;5012927;28;20511;-78
2022/07/12 14:09:05;;;;;;;7.67;1.03;;;;;;;;;;5012870;28;20471;-77
2022/07/12 14:11:32;;;;;;;7.93;0.80;;;;;;;;;;5012256;28;20450;-77
2022/07/12 14:13:59;;;;;;;7.30;0.90;;;;;;;;;;5012580;28;20444;-76
2022/07/12 14:16:26;;;;;;;7.25;0.90;;;;;;;;;;5012049;28;20221;-76
2022/07/12 14:18:53;;;;;;;7.50;1.45;;;;;;;;;;5006131;28;20212;-77
2022/07/12 14:21:20;;;;;;;12.40;0.80;;;;;;;;;;5006758;28;20291;-78
2022/07/12 14:23:49;;;;;;;7.28;1.10;;;;;;;;;;5013171;28;20205;-78
2022/07/12 14:26:16;;;;;;;7.88;1.00;;;;;;;;;;5004060;28;20690;-76
2022/07/12 14:28:43;;;;;;;6.93;0.90;;;;;;;;;;5012784;28;20652;-78
2022/07/12 14:31:10;;;;;;;6.68;0.70;;;;;;;;;;5013935;28;20201;-78
2022/07/12 14:33:37;;;;;;;7.22;0.80;;;;;;;;;;5013122;28;20215;-78
2022/07/12 14:36:05;;;;;;;6.70;0.80;;;;;;;;;;5012545;28;20212;-77
2022/07/12 14:38:32;;;;;;;6.75;0.80;;;;;;;;;;5012567;28;20284;-78
2022/07/12 14:41:00;;;;;;;6.88;0.75;;;;;;;;;;5012836;28;20564;-78
2022/07/12 14:43:27;;;;;;;7.45;0.70;;;;;;;;;;5011716;28;20644;-77
2022/07/12 14:45:55;;;;;;;6.90;0.77;;;;;;;;;;5012294;28;20227;-79
2022/07/12 14:48:22;;;;;;;7.35;0.70;;;;;;;;;;5011627;28;20910;-78
2022/07/12 14:50:49;;;;;;;6.70;0.70;;;26.20;1.00;;;;;;5012137;28;20207;-79
2022/07/12 14:53:16;;;;;;;6.72;0.75;;;;;;;;;;5011200;28;20197;-78
2022/07/12 14:55:43;;;;;;;6.78;0.90;;;;;;;;;;5010027;28;20268;-78
2022/07/12 14:58:12;;;;;;;7.00;0.82;;;33.80;1.00;;;;;;4998001;28;20200;-76
2022/07/12 15:00:39;;;;;;;7.10;0.98;;;34.00;1.00;;;;;;5019552;28;20228;-79
2022/07/12 15:03:05;;;;;;;7.20;1.10;;;34.50;1.00;;;;;;5025173;28;20261;-79
2022/07/12 15:05:32;;;;;;;6.68;0.93;;;34.70;1.00;;;;;;5025748;28;20301;-79
2022/07/12 15:07:59;;;;;;;7.05;1.08;;;;;;;;;;5020764;28;20203;-78
2022/07/12 15:10:26;;;;;;;6.72;0.80;;;;;;;;;;5020992;28;20211;-78